sensor_id;sensor_type;location;lat;lon;timestamp;P1;durP1;ratioP1;P2;durP2;ratioP2
15820;SDS011;8011;51.650;7.240;2022-08-25T03:01:03;5.20;;;2.10;;
15820;SDS011;8011;51.650;7.240;2022-08-25T03:03:29;2.40;;;2.20;;
15820;SDS011;8011;51.650;7.240;2022-08-25T03:05:55;4.50;;;2.20;;
15820;SDS011;8011;51.650;7.240;2022-08-25T03:08:21;5.43;;;2.20;;
15820;SDS011;8011;51.650;7.240;2022-08-25T03:13:52;2.23;;;2.00;;
15820;SDS011;8011;51.650;7.240;2022-08-25T03:18:46;4.93;;;2.20;;
15820;SDS011;8011;51.650;7.240;2022-08-25T03:21:12;4.90;;;1.93;;
15820;SDS011;8011;51.650;7.240;2022-08-25T03:23:39;4.20;;;2.43;;
15820;SDS011;8011;51.650;7.240;2022-08-25T03:26:05;2.23;;;2.03;;
15820;SDS011;8011;51.650;7.240;2022-08-25T03:28:49;2.40;;;2.20;;
15820;SDS011;8011;51.650;7.240;2022-08-25T03:34:30;4.50;;;2.10;;
15820;SDS011;8011;51.650;7.240;2022-08-25T03:36:56;4.13;;;2.00;;
15820;SDS011;8011;51.650;7.240;2022-08-25T03:39:23;2.43;;;2.23;;
15820;SDS011;8011;51.650;7.240;2022-08-25T03:41:49;7.57;;;2.40;;
15820;SDS011;8011;51.650;7.240;2022-08-25T03:44:16;3.23;;;2.40;;
15820;SDS011;8011;51.650;7.240;2022-08-25T03:46:44;4.53;;;2.40;;
15820;SDS011;8011;51.650;7.240;2022-08-25T03:49:12;3.73;;;2.13;;
15820;SDS011;8011;51.650;7.240;2022-08-25T03:51:44;3.30;;;2.20;;
15820;SDS011;8011;51.650;7.240;2022-08-25T03:54:12;4.23;;;2.50;;
15820;SDS011;8011;51.650;7.240;2022-08-25T03:56:42;3.07;;;2.33;;
15820;SDS011;8011;51.650;7.240;2022-08-25T03:59:08;4.57;;;2.67;;
15820;SDS011;8011;51.650;7.240;2022-08-25T04:01:35;5.40;;;2.33;;
15820;SDS011;8011;51.650;7.240;2022-08-25T04:04:02;3.73;;;2.20;;
15820;SDS011;8011;51.650;7.240;2022-08-25T04:06:30;3.80;;;2.50;;
15820;SDS011;8011;51.650;7.240;2022-08-25T04:08:56;2.60;;;2.40;;
15820;SDS011;8011;51.650;7.240;2022-08-25T04:11:23;4.57;;;2.63;;
15820;SDS011;8011;51.650;7.240;2022-08-25T04:13:49;4.43;;;2.97;;
15820;SDS011;8011;51.650;7.240;2022-08-25T04:16:18;6.27;;;3.50;;
15820;SDS011;8011;51.650;7.240;2022-08-25T04:18:47;3.77;;;2.70;;
15820;SDS011;8011;51.650;7.240;2022-08-25T04:21:14;5.40;;;2.80;;
15820;SDS011;8011;51.650;7.240;2022-08-25T04:23:42;4.77;;;2.53;;
15820;SDS011;8011;51.650;7.240;2022-08-25T04:28:34;3.03;;;2.47;;
15820;SDS011;8011;51.650;7.240;2022-08-25T04:31:00;4.13;;;2.70;;
15820;SDS011;8011;51.650;7.240;2022-08-25T04:33:25;4.03;;;2.70;;
15820;SDS011;8011;51.650;7.240;2022-08-25T04:35:51;3.80;;;2.73;;
15820;SDS011;8011;51.650;7.240;2022-08-25T04:38:17;4.57;;;2.93;;
15820;SDS011;8011;51.650;7.240;2022-08-25T04:40:42;4.53;;;3.10;;
15820;SDS011;8011;51.650;7.240;2022-08-25T04:43:08;3.33;;;2.93;;
15820;SDS011;8011;51.650;7.240;2022-08-25T04:45:37;3.63;;;2.90;;
15820;SDS011;8011;51.650;7.240;2022-08-25T04:48:04;4.23;;;3.00;;
15820;SDS011;8011;51.650;7.240;2022-08-25T04:50:30;4.20;;;2.60;;
15820;SDS011;8011;51.650;7.240;2022-08-25T04:52:56;6.20;;;2.93;;
15820;SDS011;8011;51.650;7.240;2022-08-25T04:55:22;4.07;;;2.90;;
15820;SDS011;8011;51.650;7.240;2022-08-25T04:57:47;3.37;;;2.73;;
15820;SDS011;8011;51.650;7.240;2022-08-25T05:00:13;6.00;;;3.30;;
15820;SDS011;8011;51.650;7.240;2022-08-25T05:02:40;3.73;;;2.93;;
15820;SDS011;8011;51.650;7.240;2022-08-25T05:05:05;3.87;;;2.97;;
15820;SDS011;8011;51.650;7.240;2022-08-25T05:07:31;4.50;;;3.03;;
15820;SDS011;8011;51.650;7.240;2022-08-25T05:09:57;5.47;;;2.83;;
15820;SDS011;8011;51.650;7.240;2022-08-25T05:12:22;7.13;;;3.17;;
15820;SDS011;8011;51.650;7.240;2022-08-25T05:14:50;4.87;;;2.93;;
15820;SDS011;8011;51.650;7.240;2022-08-25T05:17:17;5.47;;;2.87;;
15820;SDS011;8011;51.650;7.240;2022-08-25T05:19:43;6.93;;;2.80;;
15820;SDS011;8011;51.650;7.240;2022-08-25T05:22:09;6.87;;;3.03;;
15820;SDS011;8011;51.650;7.240;2022-08-25T05:24:34;3.23;;;2.70;;
15820;SDS011;8011;51.650;7.240;2022-08-25T05:27:00;5.30;;;3.10;;
15820;SDS011;8011;51.650;7.240;2022-08-25T05:29:28;8.33;;;3.50;;
15820;SDS011;8011;51.650;7.240;2022-08-25T05:31:54;5.47;;;3.07;;
15820;SDS011;8011;51.650;7.240;2022-08-25T05:34:19;3.93;;;3.13;;
15820;SDS011;8011;51.650;7.240;2022-08-25T05:36:46;4.97;;;2.80;;
15820;SDS011;8011;51.650;7.240;2022-08-25T05:39:12;5.47;;;3.23;;
15820;SDS011;8011;51.650;7.240;2022-08-25T05:41:38;6.57;;;3.43;;
15820;SDS011;8011;51.650;7.240;2022-08-25T05:44:04;4.67;;;3.30;;
15820;SDS011;8011;51.650;7.240;2022-08-25T05:46:30;5.77;;;3.20;;
15820;SDS011;8011;51.650;7.240;2022-08-25T05:48:56;6.50;;;3.50;;
15820;SDS011;8011;51.650;7.240;2022-08-25T05:51:34;5.13;;;3.30;;
15820;SDS011;8011;51.650;7.240;2022-08-25T05:54:00;3.90;;;3.30;;
15820;SDS011;8011;51.650;7.240;2022-08-25T05:56:25;4.57;;;3.57;;
15820;SDS011;8011;51.650;7.240;2022-08-25T05:58:51;7.50;;;3.50;;
15820;SDS011;8011;51.650;7.240;2022-08-25T06:01:21;4.93;;;3.30;;
15820;SDS011;8011;51.650;7.240;2022-08-25T06:04:07;3.87;;;3.43;;
15820;SDS011;8011;51.650;7.240;2022-08-25T06:06:33;3.93;;;3.50;;
15820;SDS011;8011;51.650;7.240;2022-08-25T06:09:00;3.77;;;3.40;;
15820;SDS011;8011;51.650;7.240;2022-08-25T06:11:26;3.33;;;3.03;;
15820;SDS011;8011;51.650;7.240;2022-08-25T06:13:52;4.03;;;3.37;;
15820;SDS011;8011;51.650;7.240;2022-08-25T06:16:18;4.87;;;3.80;;
15820;SDS011;8011;51.650;7.240;2022-08-25T06:18:43;6.20;;;3.67;;
15820;SDS011;8011;51.650;7.240;2022-08-25T06:21:10;5.20;;;3.60;;
15820;SDS011;8011;51.650;7.240;2022-08-25T06:23:38;6.87;;;3.73;;
15820;SDS011;8011;51.650;7.240;2022-08-25T06:26:04;7.60;;;3.83;;
15820;SDS011;8011;51.650;7.240;2022-08-25T06:28:30;4.80;;;3.57;;
15820;SDS011;8011;51.650;7.240;2022-08-25T06:31:00;5.17;;;4.37;;
15820;SDS011;8011;51.650;7.240;2022-08-25T06:33:26;5.40;;;3.40;;
15820;SDS011;8011;51.650;7.240;2022-08-25T06:35:53;4.43;;;4.03;;
15820;SDS011;8011;51.650;7.240;2022-08-25T06:38:22;8.37;;;3.33;;
15820;SDS011;8011;51.650;7.240;2022-08-25T06:40:48;4.87;;;3.40;;
15820;SDS011;8011;51.650;7.240;2022-08-25T06:43:16;5.37;;;3.20;;
15820;SDS011;8011;51.650;7.240;2022-08-25T06:45:43;4.03;;;3.33;;
15820;SDS011;8011;51.650;7.240;2022-08-25T06:48:09;4.10;;;3.13;;
15820;SDS011;8011;51.650;7.240;2022-08-25T06:50:38;4.37;;;3.00;;
15820;SDS011;8011;51.650;7.240;2022-08-25T06:53:05;4.07;;;3.33;;
15820;SDS011;8011;51.650;7.240;2022-08-25T06:55:31;4.27;;;3.27;;
15820;SDS011;8011;51.650;7.240;2022-08-25T06:57:59;4.37;;;3.40;;
15820;SDS011;8011;51.650;7.240;2022-08-25T07:00:25;6.77;;;3.60;;
15820;SDS011;8011;51.650;7.240;2022-08-25T07:02:51;5.00;;;3.90;;
15820;SDS011;8011;51.650;7.240;2022-08-25T07:05:17;5.10;;;3.40;;
15820;SDS011;8011;51.650;7.240;2022-08-25T07:07:42;4.43;;;3.70;;
15820;SDS011;8011;51.650;7.240;2022-08-25T07:10:10;5.27;;;3.33;;
15820;SDS011;8011;51.650;7.240;2022-08-25T07:12:37;4.10;;;3.70;;
15820;SDS011;8011;51.650;7.240;2022-08-25T07:15:03;7.03;;;3.67;;
15820;SDS011;8011;51.650;7.240;2022-08-25T07:17:29;6.60;;;3.67;;
15820;SDS011;8011;51.650;7.240;2022-08-25T07:19:55;4.70;;;3.90;;
15820;SDS011;8011;51.650;7.240;2022-08-25T07:22:20;7.63;;;3.80;;
15820;SDS011;8011;51.650;7.240;2022-08-25T07:24:47;9.10;;;4.30;;
15820;SDS011;8011;51.650;7.240;2022-08-25T07:27:13;5.63;;;3.67;;
15820;SDS011;8011;51.650;7.240;2022-08-25T07:29:38;4.63;;;3.20;;
15820;SDS011;8011;51.650;7.240;2022-08-25T07:32:05;4.30;;;3.70;;
15820;SDS011;8011;51.650;7.240;2022-08-25T07:34:31;4.20;;;3.33;;
15820;SDS011;8011;51.650;7.240;2022-08-25T07:37:15;4.03;;;3.63;;
15820;SDS011;8011;51.650;7.240;2022-08-25T07:39:41;4.40;;;3.93;;
15820;SDS011;8011;51.650;7.240;2022-08-25T07:42:06;6.90;;;4.20;;
15820;SDS011;8011;51.650;7.240;2022-08-25T07:44:33;7.43;;;4.20;;
15820;SDS011;8011;51.650;7.240;2022-08-25T07:46:58;4.23;;;3.47;;
15820;SDS011;8011;51.650;7.240;2022-08-25T07:49:25;4.80;;;4.07;;
15820;SDS011;8011;51.650;7.240;2022-08-25T07:51:51;6.13;;;4.00;;
15820;SDS011;8011;51.650;7.240;2022-08-25T07:54:18;5.17;;;3.83;;
15820;SDS011;8011;51.650;7.240;2022-08-25T07:56:45;5.50;;;3.83;;
15820;SDS011;8011;51.650;7.240;2022-08-25T07:59:10;4.20;;;3.77;;
15820;SDS011;8011;51.650;7.240;2022-08-25T08:01:36;4.50;;;3.60;;
15820;SDS011;8011;51.650;7.240;2022-08-25T08:04:04;3.93;;;3.20;;
15820;SDS011;8011;51.650;7.240;2022-08-25T08:06:30;5.97;;;3.63;;
15820;SDS011;8011;51.650;7.240;2022-08-25T08:08:55;4.13;;;3.73;;
15820;SDS011;8011;51.650;7.240;2022-08-25T08:11:25;5.57;;;4.03;;
15820;SDS011;8011;51.650;7.240;2022-08-25T08:13:53;4.38;;;3.80;;
15820;SDS011;8011;51.650;7.240;2022-08-25T08:16:21;8.05;;;3.83;;
15820;SDS011;8011;51.650;7.240;2022-08-25T08:18:48;4.68;;;3.70;;
15820;SDS011;8011;51.650;7.240;2022-08-25T08:21:15;4.90;;;4.03;;
15820;SDS011;8011;51.650;7.240;2022-08-25T08:23:44;5.90;;;4.22;;
15820;SDS011;8011;51.650;7.240;2022-08-25T08:26:12;4.72;;;3.88;;
15820;SDS011;8011;51.650;7.240;2022-08-25T08:28:38;8.38;;;4.00;;
15820;SDS011;8011;51.650;7.240;2022-08-25T08:31:03;7.25;;;4.20;;
15820;SDS011;8011;51.650;7.240;2022-08-25T08:33:29;8.85;;;4.00;;
15820;SDS011;8011;51.650;7.240;2022-08-25T08:36:00;6.38;;;3.95;;
15820;SDS011;8011;51.650;7.240;2022-08-25T08:38:27;7.13;;;4.32;;
15820;SDS011;8011;51.650;7.240;2022-08-25T08:46:48;6.20;;;4.00;;
15820;SDS011;8011;51.650;7.240;2022-08-25T08:49:25;6.80;;;4.00;;
15820;SDS011;8011;51.650;7.240;2022-08-25T08:52:14;7.22;;;4.28;;
15820;SDS011;8011;51.650;7.240;2022-08-25T08:54:42;4.78;;;3.83;;
15820;SDS011;8011;51.650;7.240;2022-08-25T08:57:11;5.18;;;3.97;;
15820;SDS011;8011;51.650;7.240;2022-08-25T08:59:47;5.10;;;4.00;;
15820;SDS011;8011;51.650;7.240;2022-08-25T09:02:18;5.30;;;3.85;;
15820;SDS011;8011;51.650;7.240;2022-08-25T09:04:54;6.90;;;4.10;;
15820;SDS011;8011;51.650;7.240;2022-08-25T09:07:25;6.57;;;4.10;;
15820;SDS011;8011;51.650;7.240;2022-08-25T09:09:55;5.70;;;3.95;;
15820;SDS011;8011;51.650;7.240;2022-08-25T09:12:25;4.65;;;4.18;;
15820;SDS011;8011;51.650;7.240;2022-08-25T09:18:25;3.85;;;3.47;;
15820;SDS011;8011;51.650;7.240;2022-08-25T09:21:37;3.75;;;3.10;;
15820;SDS011;8011;51.650;7.240;2022-08-25T09:29:20;3.72;;;3.33;;
15820;SDS011;8011;51.650;7.240;2022-08-25T09:31:48;4.70;;;3.92;;
15820;SDS011;8011;51.650;7.240;2022-08-25T09:34:18;4.00;;;3.70;;
15820;SDS011;8011;51.650;7.240;2022-08-25T09:36:46;5.07;;;4.00;;
15820;SDS011;8011;51.650;7.240;2022-08-25T09:39:16;4.22;;;3.83;;
15820;SDS011;8011;51.650;7.240;2022-08-25T09:44:33;4.00;;;3.60;;
15820;SDS011;8011;51.650;7.240;2022-08-25T09:47:25;5.28;;;3.80;;
15820;SDS011;8011;51.650;7.240;2022-08-25T09:50:02;5.22;;;3.85;;
15820;SDS011;8011;51.650;7.240;2022-08-25T09:52:30;5.00;;;3.40;;
15820;SDS011;8011;51.650;7.240;2022-08-25T09:55:43;6.57;;;3.67;;
15820;SDS011;8011;51.650;7.240;2022-08-25T09:57:51;4.35;;;3.70;;
15820;SDS011;8011;51.650;7.240;2022-08-25T10:03:05;4.30;;;3.47;;
15820;SDS011;8011;51.650;7.240;2022-08-25T10:09:09;5.10;;;3.58;;
15820;SDS011;8011;51.650;7.240;2022-08-25T10:11:12;5.78;;;4.28;;
15820;SDS011;8011;51.650;7.240;2022-08-25T10:13:59;7.93;;;3.75;;
15820;SDS011;8011;51.650;7.240;2022-08-25T10:16:29;8.35;;;3.80;;
15820;SDS011;8011;51.650;7.240;2022-08-25T10:19:06;6.95;;;3.58;;
15820;SDS011;8011;51.650;7.240;2022-08-25T10:21:35;3.83;;;3.35;;
15820;SDS011;8011;51.650;7.240;2022-08-25T10:24:03;6.07;;;3.55;;
15820;SDS011;8011;51.650;7.240;2022-08-25T10:32:02;7.07;;;3.55;;
15820;SDS011;8011;51.650;7.240;2022-08-25T10:37:09;6.07;;;3.13;;
15820;SDS011;8011;51.650;7.240;2022-08-25T10:39:42;5.32;;;3.80;;
15820;SDS011;8011;51.650;7.240;2022-08-25T10:44:43;4.43;;;4.00;;
15820;SDS011;8011;51.650;7.240;2022-08-25T10:50:48;3.83;;;3.42;;
15820;SDS011;8011;51.650;7.240;2022-08-25T10:53:14;4.53;;;3.63;;
15820;SDS011;8011;51.650;7.240;2022-08-25T10:56:03;7.75;;;3.80;;
15820;SDS011;8011;51.650;7.240;2022-08-25T11:01:14;4.70;;;3.83;;
15820;SDS011;8011;51.650;7.240;2022-08-25T11:04:02;4.32;;;3.80;;
15820;SDS011;8011;51.650;7.240;2022-08-25T11:06:38;4.22;;;3.83;;
15820;SDS011;8011;51.650;7.240;2022-08-25T11:09:09;5.40;;;3.65;;
15820;SDS011;8011;51.650;7.240;2022-08-25T11:11:39;4.30;;;3.90;;
15820;SDS011;8011;51.650;7.240;2022-08-25T11:17:17;5.40;;;3.60;;
15820;SDS011;8011;51.650;7.240;2022-08-25T11:19:49;4.60;;;4.20;;
15820;SDS011;8011;51.650;7.240;2022-08-25T11:25:27;3.95;;;3.65;;
15820;SDS011;8011;51.650;7.240;2022-08-25T11:28:05;4.90;;;3.83;;
15820;SDS011;8011;51.650;7.240;2022-08-25T11:30:40;4.78;;;3.92;;
15820;SDS011;8011;51.650;7.240;2022-08-25T11:33:11;4.85;;;4.25;;
15820;SDS011;8011;51.650;7.240;2022-08-25T11:35:43;8.45;;;4.53;;
15820;SDS011;8011;51.650;7.240;2022-08-25T11:38:47;5.20;;;3.80;;
15820;SDS011;8011;51.650;7.240;2022-08-25T11:42:09;5.18;;;3.42;;
15820;SDS011;8011;51.650;7.240;2022-08-25T11:44:51;5.90;;;3.47;;
15820;SDS011;8011;51.650;7.240;2022-08-25T11:50:29;5.70;;;3.70;;
15820;SDS011;8011;51.650;7.240;2022-08-25T11:53:23;5.20;;;3.83;;
15820;SDS011;8011;51.650;7.240;2022-08-25T11:55:49;3.78;;;3.47;;
15820;SDS011;8011;51.650;7.240;2022-08-25T12:00:59;4.60;;;3.83;;
15820;SDS011;8011;51.650;7.240;2022-08-25T12:16:41;3.78;;;3.10;;
15820;SDS011;8011;51.650;7.240;2022-08-25T12:19:27;4.13;;;3.47;;
15820;SDS011;8011;51.650;7.240;2022-08-25T12:29:52;4.10;;;3.70;;
15820;SDS011;8011;51.650;7.240;2022-08-25T12:32:37;5.15;;;3.83;;
15820;SDS011;8011;51.650;7.240;2022-08-25T12:37:58;3.42;;;3.13;;
15820;SDS011;8011;51.650;7.240;2022-08-25T12:51:20;5.00;;;3.60;;
15820;SDS011;8011;51.650;7.240;2022-08-25T12:53:51;6.05;;;3.72;;
15820;SDS011;8011;51.650;7.240;2022-08-25T12:56:26;7.78;;;3.83;;
15820;SDS011;8011;51.650;7.240;2022-08-25T13:04:40;4.75;;;3.35;;
15820;SDS011;8011;51.650;7.240;2022-08-25T13:15:44;4.50;;;3.05;;
15820;SDS011;8011;51.650;7.240;2022-08-25T13:18:25;4.50;;;3.55;;
15820;SDS011;8011;51.650;7.240;2022-08-25T13:20:53;4.40;;;3.40;;
15820;SDS011;8011;51.650;7.240;2022-08-25T13:23:28;5.25;;;3.78;;
15820;SDS011;8011;51.650;7.240;2022-08-25T13:25:55;7.72;;;3.65;;
15820;SDS011;8011;51.650;7.240;2022-08-25T13:28:24;4.22;;;3.30;;
15820;SDS011;8011;51.650;7.240;2022-08-25T13:31:02;4.65;;;3.40;;
15820;SDS011;8011;51.650;7.240;2022-08-25T13:33:31;3.30;;;3.00;;
15820;SDS011;8011;51.650;7.240;2022-08-25T13:35:58;4.13;;;3.10;;
15820;SDS011;8011;51.650;7.240;2022-08-25T13:38:44;4.82;;;3.20;;
15820;SDS011;8011;51.650;7.240;2022-08-25T13:41:15;6.03;;;3.65;;
15820;SDS011;8011;51.650;7.240;2022-08-25T13:43:48;4.25;;;3.15;;
15820;SDS011;8011;51.650;7.240;2022-08-25T13:46:21;3.88;;;3.10;;
15820;SDS011;8011;51.650;7.240;2022-08-25T13:48:47;4.32;;;3.30;;
15820;SDS011;8011;51.650;7.240;2022-08-25T13:51:20;3.90;;;3.47;;
15820;SDS011;8011;51.650;7.240;2022-08-25T13:53:55;4.25;;;3.35;;
15820;SDS011;8011;51.650;7.240;2022-08-25T13:56:30;6.72;;;3.30;;
15820;SDS011;8011;51.650;7.240;2022-08-25T13:58:59;3.85;;;3.30;;
15820;SDS011;8011;51.650;7.240;2022-08-25T14:01:27;3.20;;;2.88;;
15820;SDS011;8011;51.650;7.240;2022-08-25T14:03:56;3.55;;;3.25;;
15820;SDS011;8011;51.650;7.240;2022-08-25T14:06:46;3.22;;;2.92;;
15820;SDS011;8011;51.650;7.240;2022-08-25T14:09:16;5.35;;;3.15;;
15820;SDS011;8011;51.650;7.240;2022-08-25T14:11:44;3.47;;;3.03;;
15820;SDS011;8011;51.650;7.240;2022-08-25T14:14:18;3.95;;;2.83;;
15820;SDS011;8011;51.650;7.240;2022-08-25T14:17:06;5.53;;;2.95;;
15820;SDS011;8011;51.650;7.240;2022-08-25T14:19:33;3.85;;;2.83;;
15820;SDS011;8011;51.650;7.240;2022-08-25T14:22:00;3.65;;;3.05;;
15820;SDS011;8011;51.650;7.240;2022-08-25T14:24:27;3.10;;;2.80;;
15820;SDS011;8011;51.650;7.240;2022-08-25T14:26:57;6.90;;;3.03;;
15820;SDS011;8011;51.650;7.240;2022-08-25T14:29:23;3.20;;;2.90;;
15820;SDS011;8011;51.650;7.240;2022-08-25T14:31:49;6.55;;;3.05;;
15820;SDS011;8011;51.650;7.240;2022-08-25T14:34:23;4.35;;;3.30;;
15820;SDS011;8011;51.650;7.240;2022-08-25T14:37:00;3.22;;;2.92;;
15820;SDS011;8011;51.650;7.240;2022-08-25T14:39:30;4.22;;;3.03;;
15820;SDS011;8011;51.650;7.240;2022-08-25T14:41:56;3.58;;;3.05;;
15820;SDS011;8011;51.650;7.240;2022-08-25T14:44:22;4.75;;;2.92;;
15820;SDS011;8011;51.650;7.240;2022-08-25T14:46:51;3.42;;;2.83;;
15820;SDS011;8011;51.650;7.240;2022-08-25T14:49:20;4.35;;;3.10;;
15820;SDS011;8011;51.650;7.240;2022-08-25T14:51:53;5.28;;;3.08;;
15820;SDS011;8011;51.650;7.240;2022-08-25T14:54:22;3.63;;;2.90;;
15820;SDS011;8011;51.650;7.240;2022-08-25T14:56:50;3.85;;;3.10;;
15820;SDS011;8011;51.650;7.240;2022-08-25T14:59:19;3.47;;;3.17;;
15820;SDS011;8011;51.650;7.240;2022-08-25T15:01:45;5.28;;;3.38;;
15820;SDS011;8011;51.650;7.240;2022-08-25T15:04:15;3.30;;;3.00;;
15820;SDS011;8011;51.650;7.240;2022-08-25T15:06:46;3.35;;;3.05;;
15820;SDS011;8011;51.650;7.240;2022-08-25T15:09:17;4.03;;;3.35;;
15820;SDS011;8011;51.650;7.240;2022-08-25T15:11:47;4.03;;;3.15;;
15820;SDS011;8011;51.650;7.240;2022-08-25T15:14:15;3.58;;;3.13;;
15820;SDS011;8011;51.650;7.240;2022-08-25T15:16:43;5.38;;;3.25;;
15820;SDS011;8011;51.650;7.240;2022-08-25T15:19:15;3.58;;;3.08;;
15820;SDS011;8011;51.650;7.240;2022-08-25T15:21:42;3.03;;;2.80;;
15820;SDS011;8011;51.650;7.240;2022-08-25T15:24:09;3.47;;;3.15;;
15820;SDS011;8011;51.650;7.240;2022-08-25T15:26:38;4.07;;;3.30;;
15820;SDS011;8011;51.650;7.240;2022-08-25T15:29:11;3.60;;;3.30;;
15820;SDS011;8011;51.650;7.240;2022-08-25T15:31:37;3.53;;;2.80;;
15820;SDS011;8011;51.650;7.240;2022-08-25T15:34:06;3.83;;;3.42;;
15820;SDS011;8011;51.650;7.240;2022-08-25T15:36:33;3.20;;;2.90;;
15820;SDS011;8011;51.650;7.240;2022-08-25T15:39:00;4.63;;;3.40;;
15820;SDS011;8011;51.650;7.240;2022-08-25T15:41:26;3.58;;;3.00;;
15820;SDS011;8011;51.650;7.240;2022-08-25T15:43:54;3.65;;;2.88;;
15820;SDS011;8011;51.650;7.240;2022-08-25T15:46:20;5.20;;;3.40;;
15820;SDS011;8011;51.650;7.240;2022-08-25T15:48:48;4.32;;;3.72;;
15820;SDS011;8011;51.650;7.240;2022-08-25T15:51:14;4.60;;;3.15;;
15820;SDS011;8011;51.650;7.240;2022-08-25T15:53:40;5.78;;;3.50;;
15820;SDS011;8011;51.650;7.240;2022-08-25T15:56:06;3.33;;;3.03;;
15820;SDS011;8011;51.650;7.240;2022-08-25T15:58:32;5.38;;;3.72;;
15820;SDS011;8011;51.650;7.240;2022-08-25T16:00:59;3.72;;;3.28;;
15820;SDS011;8011;51.650;7.240;2022-08-25T16:03:25;4.20;;;3.47;;
15820;SDS011;8011;51.650;7.240;2022-08-25T16:05:51;6.15;;;3.63;;
15820;SDS011;8011;51.650;7.240;2022-08-25T16:08:17;3.38;;;3.08;;
15820;SDS011;8011;51.650;7.240;2022-08-25T16:10:42;4.07;;;3.40;;
15820;SDS011;8011;51.650;7.240;2022-08-25T16:13:09;5.75;;;3.42;;
15820;SDS011;8011;51.650;7.240;2022-08-25T16:15:35;7.45;;;3.20;;
15820;SDS011;8011;51.650;7.240;2022-08-25T16:18:02;4.72;;;3.30;;
15820;SDS011;8011;51.650;7.240;2022-08-25T16:20:31;3.83;;;3.42;;
15820;SDS011;8011;51.650;7.240;2022-08-25T16:22:58;4.13;;;3.67;;
15820;SDS011;8011;51.650;7.240;2022-08-25T16:25:26;4.82;;;3.42;;
15820;SDS011;8011;51.650;7.240;2022-08-25T16:27:52;4.05;;;3.58;;
15820;SDS011;8011;51.650;7.240;2022-08-25T16:30:18;4.13;;;2.97;;
15820;SDS011;8011;51.650;7.240;2022-08-25T16:32:45;3.88;;;3.53;;
15820;SDS011;8011;51.650;7.240;2022-08-25T16:35:11;4.00;;;3.33;;
15820;SDS011;8011;51.650;7.240;2022-08-25T16:37:38;4.47;;;3.22;;
15820;SDS011;8011;51.650;7.240;2022-08-25T16:40:05;4.47;;;3.38;;
15820;SDS011;8011;51.650;7.240;2022-08-25T16:42:31;3.80;;;3.08;;
15820;SDS011;8011;51.650;7.240;2022-08-25T16:44:57;4.40;;;3.47;;
15820;SDS011;8011;51.650;7.240;2022-08-25T16:47:23;6.57;;;3.40;;
15820;SDS011;8011;51.650;7.240;2022-08-25T16:49:48;4.10;;;3.70;;
15820;SDS011;8011;51.650;7.240;2022-08-25T16:52:14;3.80;;;3.45;;
15820;SDS011;8011;51.650;7.240;2022-08-25T16:54:59;5.90;;;3.40;;
15820;SDS011;8011;51.650;7.240;2022-08-25T16:57:48;6.55;;;3.40;;
15820;SDS011;8011;51.650;7.240;2022-08-25T17:00:18;4.00;;;3.60;;
15820;SDS011;8011;51.650;7.240;2022-08-25T17:02:47;5.97;;;3.40;;
15820;SDS011;8011;51.650;7.240;2022-08-25T17:05:15;3.80;;;3.42;;
15820;SDS011;8011;51.650;7.240;2022-08-25T17:07:41;4.25;;;3.30;;
15820;SDS011;8011;51.650;7.240;2022-08-25T17:10:07;4.28;;;3.38;;
15820;SDS011;8011;51.650;7.240;2022-08-25T17:12:33;4.18;;;3.42;;
15820;SDS011;8011;51.650;7.240;2022-08-25T17:14:59;5.00;;;3.40;;
15820;SDS011;8011;51.650;7.240;2022-08-25T17:17:25;6.65;;;3.40;;
15820;SDS011;8011;51.650;7.240;2022-08-25T17:19:51;4.70;;;3.63;;
15820;SDS011;8011;51.650;7.240;2022-08-25T17:22:17;4.85;;;3.75;;
15820;SDS011;8011;51.650;7.240;2022-08-25T17:24:43;3.60;;;3.28;;
15820;SDS011;8011;51.650;7.240;2022-08-25T17:27:10;4.47;;;3.63;;
15820;SDS011;8011;51.650;7.240;2022-08-25T17:29:37;5.18;;;3.80;;
15820;SDS011;8011;51.650;7.240;2022-08-25T17:32:04;6.53;;;3.70;;
15820;SDS011;8011;51.650;7.240;2022-08-25T17:34:30;3.97;;;3.60;;
15820;SDS011;8011;51.650;7.240;2022-08-25T17:36:59;4.60;;;3.85;;
15820;SDS011;8011;51.650;7.240;2022-08-25T17:39:25;3.58;;;3.28;;
15820;SDS011;8011;51.650;7.240;2022-08-25T17:41:51;4.05;;;3.45;;
15820;SDS011;8011;51.650;7.240;2022-08-25T17:44:16;4.03;;;3.63;;
15820;SDS011;8011;51.650;7.240;2022-08-25T17:46:43;4.35;;;3.40;;
15820;SDS011;8011;51.650;7.240;2022-08-25T17:49:09;5.35;;;3.70;;
15820;SDS011;8011;51.650;7.240;2022-08-25T17:51:35;4.07;;;3.40;;
15820;SDS011;8011;51.650;7.240;2022-08-25T17:54:01;4.43;;;4.13;;
15820;SDS011;8011;51.650;7.240;2022-08-25T17:56:27;5.07;;;4.38;;
15820;SDS011;8011;51.650;7.240;2022-08-25T17:58:54;4.60;;;4.20;;
15820;SDS011;8011;51.650;7.240;2022-08-25T18:01:21;4.68;;;4.28;;
15820;SDS011;8011;51.650;7.240;2022-08-25T18:03:52;5.25;;;4.78;;
15820;SDS011;8011;51.650;7.240;2022-08-25T18:06:18;6.82;;;5.65;;
15820;SDS011;8011;51.650;7.240;2022-08-25T18:08:45;5.93;;;5.25;;
15820;SDS011;8011;51.650;7.240;2022-08-25T18:11:11;8.18;;;5.22;;
15820;SDS011;8011;51.650;7.240;2022-08-25T18:13:37;5.78;;;5.20;;
15820;SDS011;8011;51.650;7.240;2022-08-25T18:16:03;8.90;;;4.53;;
15820;SDS011;8011;51.650;7.240;2022-08-25T18:18:29;5.38;;;4.45;;
15820;SDS011;8011;51.650;7.240;2022-08-25T18:20:55;5.03;;;4.35;;
15820;SDS011;8011;51.650;7.240;2022-08-25T18:23:21;6.40;;;4.38;;
15820;SDS011;8011;51.650;7.240;2022-08-25T18:25:47;4.38;;;3.97;;
15820;SDS011;8011;51.650;7.240;2022-08-25T18:28:14;4.95;;;4.05;;
15820;SDS011;8011;51.650;7.240;2022-08-25T18:30:40;4.25;;;3.85;;
15820;SDS011;8011;51.650;7.240;2022-08-25T18:33:06;5.95;;;4.15;;
15820;SDS011;8011;51.650;7.240;2022-08-25T18:35:32;4.40;;;4.00;;
15820;SDS011;8011;51.650;7.240;2022-08-25T18:37:57;4.40;;;3.90;;
15820;SDS011;8011;51.650;7.240;2022-08-25T18:40:42;4.72;;;4.30;;
15820;SDS011;8011;51.650;7.240;2022-08-25T18:43:09;6.45;;;3.60;;
15820;SDS011;8011;51.650;7.240;2022-08-25T18:45:44;4.90;;;3.85;;
15820;SDS011;8011;51.650;7.240;2022-08-25T18:48:14;4.47;;;4.07;;
15820;SDS011;8011;51.650;7.240;2022-08-25T18:50:42;6.38;;;4.03;;
15820;SDS011;8011;51.650;7.240;2022-08-25T18:53:08;5.25;;;4.43;;
15820;SDS011;8011;51.650;7.240;2022-08-25T18:55:35;5.00;;;3.95;;
15820;SDS011;8011;51.650;7.240;2022-08-25T18:58:03;5.50;;;3.72;;
15820;SDS011;8011;51.650;7.240;2022-08-25T19:00:30;4.53;;;3.63;;
15820;SDS011;8011;51.650;7.240;2022-08-25T19:02:56;4.18;;;3.78;;
15820;SDS011;8011;51.650;7.240;2022-08-25T19:05:24;4.80;;;3.78;;
15820;SDS011;8011;51.650;7.240;2022-08-25T19:07:56;7.05;;;4.05;;
15820;SDS011;8011;51.650;7.240;2022-08-25T19:10:22;4.65;;;3.70;;
15820;SDS011;8011;51.650;7.240;2022-08-25T19:12:47;4.90;;;3.70;;
15820;SDS011;8011;51.650;7.240;2022-08-25T19:15:13;5.38;;;4.18;;
15820;SDS011;8011;51.650;7.240;2022-08-25T19:17:39;7.00;;;3.90;;
15820;SDS011;8011;51.650;7.240;2022-08-25T19:20:06;4.50;;;3.85;;
15820;SDS011;8011;51.650;7.240;2022-08-25T19:22:33;4.38;;;3.97;;
15820;SDS011;8011;51.650;7.240;2022-08-25T19:24:59;4.15;;;3.50;;
15820;SDS011;8011;51.650;7.240;2022-08-25T19:27:25;5.80;;;3.67;;
15820;SDS011;8011;51.650;7.240;2022-08-25T19:29:51;4.78;;;3.75;;
15820;SDS011;8011;51.650;7.240;2022-08-25T19:32:17;5.00;;;3.55;;
15820;SDS011;8011;51.650;7.240;2022-08-25T19:34:43;6.45;;;3.80;;
15820;SDS011;8011;51.650;7.240;2022-08-25T19:37:12;6.25;;;3.97;;
15820;SDS011;8011;51.650;7.240;2022-08-25T19:39:40;4.30;;;3.90;;
15820;SDS011;8011;51.650;7.240;2022-08-25T19:42:07;6.53;;;3.45;;
15820;SDS011;8011;51.650;7.240;2022-08-25T19:44:33;8.90;;;3.95;;
15820;SDS011;8011;51.650;7.240;2022-08-25T19:47:00;6.70;;;4.18;;
15820;SDS011;8011;51.650;7.240;2022-08-25T19:49:28;3.88;;;3.47;;
15820;SDS011;8011;51.650;7.240;2022-08-25T19:51:58;4.13;;;3.75;;
15820;SDS011;8011;51.650;7.240;2022-08-25T19:54:27;4.72;;;3.90;;
15820;SDS011;8011;51.650;7.240;2022-08-25T19:56:55;9.23;;;3.72;;
15820;SDS011;8011;51.650;7.240;2022-08-25T19:59:27;7.45;;;3.47;;
15820;SDS011;8011;51.650;7.240;2022-08-25T20:01:55;4.78;;;3.60;;
15820;SDS011;8011;51.650;7.240;2022-08-25T20:04:21;4.35;;;3.40;;